sensor_id;sensor_type;location;lat;lon;timestamp;P1;durP1;ratioP1;P2;durP2;ratioP2
7879;SDS011;3985;49.366;2.738;2022-10-16T00:01:07;3.25;;;3.25;;
7879;SDS011;3985;49.366;2.738;2022-10-16T00:03:39;4.00;;;4.00;;
7879;SDS011;3985;49.366;2.738;2022-10-16T00:06:08;4.00;;;4.00;;
7879;SDS011;3985;49.366;2.738;2022-10-16T00:08:36;2.75;;;2.75;;
7879;SDS011;3985;49.366;2.738;2022-10-16T00:11:05;4.00;;;4.00;;
7879;SDS011;3985;49.366;2.738;2022-10-16T00:13:34;3.50;;;3.50;;
7879;SDS011;3985;49.366;2.738;2022-10-16T00:16:03;3.00;;;3.00;;
7879;SDS011;3985;49.366;2.738;2022-10-16T00:18:33;4.75;;;4.75;;
7879;SDS011;3985;49.366;2.738;2022-10-16T00:21:02;4.75;;;4.75;;
7879;SDS011;3985;49.366;2.738;2022-10-16T00:23:30;4.00;;;4.00;;
7879;SDS011;3985;49.366;2.738;2022-10-16T00:25:59;4.50;;;4.50;;
7879;SDS011;3985;49.366;2.738;2022-10-16T00:28:29;4.00;;;4.00;;
7879;SDS011;3985;49.366;2.738;2022-10-16T00:30:56;3.50;;;3.50;;
7879;SDS011;3985;49.366;2.738;2022-10-16T00:33:24;4.25;;;4.25;;
7879;SDS011;3985;49.366;2.738;2022-10-16T00:35:53;4.50;;;4.50;;
7879;SDS011;3985;49.366;2.738;2022-10-16T00:38:21;5.00;;;4.75;;
7879;SDS011;3985;49.366;2.738;2022-10-16T00:40:48;3.75;;;3.75;;
7879;SDS011;3985;49.366;2.738;2022-10-16T00:46:03;3.75;;;3.75;;
7879;SDS011;3985;49.366;2.738;2022-10-16T00:48:34;4.00;;;4.00;;
7879;SDS011;3985;49.366;2.738;2022-10-16T00:51:03;5.50;;;5.50;;
7879;SDS011;3985;49.366;2.738;2022-10-16T00:53:32;5.50;;;5.50;;
7879;SDS011;3985;49.366;2.738;2022-10-16T00:56:00;6.50;;;4.25;;
7879;SDS011;3985;49.366;2.738;2022-10-16T00:58:28;5.50;;;4.00;;
7879;SDS011;3985;49.366;2.738;2022-10-16T01:00:55;5.25;;;5.25;;
7879;SDS011;3985;49.366;2.738;2022-10-16T01:03:24;5.00;;;4.00;;
7879;SDS011;3985;49.366;2.738;2022-10-16T01:06:03;5.00;;;5.00;;
7879;SDS011;3985;49.366;2.738;2022-10-16T01:08:43;6.00;;;4.50;;
7879;SDS011;3985;49.366;2.738;2022-10-16T01:11:16;3.00;;;3.00;;
7879;SDS011;3985;49.366;2.738;2022-10-16T01:13:47;4.50;;;4.50;;
7879;SDS011;3985;49.366;2.738;2022-10-16T01:16:20;3.50;;;3.50;;
7879;SDS011;3985;49.366;2.738;2022-10-16T01:18:57;3.00;;;3.00;;
7879;SDS011;3985;49.366;2.738;2022-10-16T01:21:31;4.75;;;4.75;;
7879;SDS011;3985;49.366;2.738;2022-10-16T01:24:03;5.00;;;5.00;;
7879;SDS011;3985;49.366;2.738;2022-10-16T01:26:36;4.75;;;4.75;;
7879;SDS011;3985;49.366;2.738;2022-10-16T01:29:18;3.00;;;3.00;;
7879;SDS011;3985;49.366;2.738;2022-10-16T01:31:47;3.75;;;3.75;;
7879;SDS011;3985;49.366;2.738;2022-10-16T01:34:18;4.25;;;3.00;;
7879;SDS011;3985;49.366;2.738;2022-10-16T01:36:48;5.00;;;4.25;;
7879;SDS011;3985;49.366;2.738;2022-10-16T01:39:20;4.00;;;3.00;;
7879;SDS011;3985;49.366;2.738;2022-10-16T01:41:51;2.00;;;2.00;;
7879;SDS011;3985;49.366;2.738;2022-10-16T01:44:24;4.50;;;4.50;;
7879;SDS011;3985;49.366;2.738;2022-10-16T01:46:54;4.00;;;4.00;;
7879;SDS011;3985;49.366;2.738;2022-10-16T01:49:22;5.50;;;5.50;;
7879;SDS011;3985;49.366;2.738;2022-10-16T01:51:54;4.00;;;4.00;;
7879;SDS011;3985;49.366;2.738;2022-10-16T01:54:23;4.75;;;4.75;;
7879;SDS011;3985;49.366;2.738;2022-10-16T01:56:53;6.00;;;4.50;;
7879;SDS011;3985;49.366;2.738;2022-10-16T01:59:24;9.75;;;6.75;;
7879;SDS011;3985;49.366;2.738;2022-10-16T02:01:54;4.00;;;4.00;;
7879;SDS011;3985;49.366;2.738;2022-10-16T02:04:26;6.75;;;6.75;;
7879;SDS011;3985;49.366;2.738;2022-10-16T02:06:55;5.00;;;5.00;;
7879;SDS011;3985;49.366;2.738;2022-10-16T02:09:23;3.50;;;3.50;;
7879;SDS011;3985;49.366;2.738;2022-10-16T02:11:51;6.00;;;6.00;;
7879;SDS011;3985;49.366;2.738;2022-10-16T02:14:21;6.00;;;4.25;;
7879;SDS011;3985;49.366;2.738;2022-10-16T02:16:50;8.50;;;5.25;;
7879;SDS011;3985;49.366;2.738;2022-10-16T02:19:17;5.00;;;3.50;;
7879;SDS011;3985;49.366;2.738;2022-10-16T02:21:46;5.00;;;5.00;;
7879;SDS011;3985;49.366;2.738;2022-10-16T02:24:19;5.25;;;5.25;;
7879;SDS011;3985;49.366;2.738;2022-10-16T02:26:56;4.00;;;4.00;;
7879;SDS011;3985;49.366;2.738;2022-10-16T02:29:28;5.00;;;5.00;;
7879;SDS011;3985;49.366;2.738;2022-10-16T02:31:56;3.00;;;3.00;;
7879;SDS011;3985;49.366;2.738;2022-10-16T02:34:25;5.00;;;5.00;;
7879;SDS011;3985;49.366;2.738;2022-10-16T02:36:54;6.25;;;5.00;;
7879;SDS011;3985;49.366;2.738;2022-10-16T02:39:22;6.75;;;5.25;;
7879;SDS011;3985;49.366;2.738;2022-10-16T02:41:50;5.00;;;5.00;;
7879;SDS011;3985;49.366;2.738;2022-10-16T02:44:17;5.25;;;5.25;;
7879;SDS011;3985;49.366;2.738;2022-10-16T02:46:46;7.00;;;6.25;;
7879;SDS011;3985;49.366;2.738;2022-10-16T02:49:13;5.25;;;5.25;;
7879;SDS011;3985;49.366;2.738;2022-10-16T02:51:41;6.25;;;6.00;;
7879;SDS011;3985;49.366;2.738;2022-10-16T02:54:09;5.25;;;5.25;;
7879;SDS011;3985;49.366;2.738;2022-10-16T02:56:36;6.25;;;5.75;;
7879;SDS011;3985;49.366;2.738;2022-10-16T02:59:07;5.75;;;5.00;;
7879;SDS011;3985;49.366;2.738;2022-10-16T03:01:34;6.00;;;6.00;;
7879;SDS011;3985;49.366;2.738;2022-10-16T03:04:03;6.25;;;6.25;;
7879;SDS011;3985;49.366;2.738;2022-10-16T03:06:30;5.50;;;5.00;;
7879;SDS011;3985;49.366;2.738;2022-10-16T03:08:58;8.00;;;6.00;;
7879;SDS011;3985;49.366;2.738;2022-10-16T03:11:25;6.00;;;6.00;;
7879;SDS011;3985;49.366;2.738;2022-10-16T03:13:53;5.50;;;5.50;;
7879;SDS011;3985;49.366;2.738;2022-10-16T03:16:20;5.00;;;5.00;;
7879;SDS011;3985;49.366;2.738;2022-10-16T03:18:48;6.00;;;6.00;;
7879;SDS011;3985;49.366;2.738;2022-10-16T03:21:17;5.25;;;5.25;;
7879;SDS011;3985;49.366;2.738;2022-10-16T03:23:44;11.00;;;6.75;;
7879;SDS011;3985;49.366;2.738;2022-10-16T03:26:11;11.00;;;7.00;;
7879;SDS011;3985;49.366;2.738;2022-10-16T03:28:39;9.75;;;7.75;;
7879;SDS011;3985;49.366;2.738;2022-10-16T03:31:07;7.00;;;7.00;;
7879;SDS011;3985;49.366;2.738;2022-10-16T03:33:34;5.75;;;5.75;;
7879;SDS011;3985;49.366;2.738;2022-10-16T03:36:02;8.50;;;7.50;;
7879;SDS011;3985;49.366;2.738;2022-10-16T03:38:31;7.25;;;7.25;;
7879;SDS011;3985;49.366;2.738;2022-10-16T03:40:58;6.00;;;6.00;;
7879;SDS011;3985;49.366;2.738;2022-10-16T03:43:26;5.25;;;5.25;;
7879;SDS011;3985;49.366;2.738;2022-10-16T03:45:53;9.50;;;7.75;;
7879;SDS011;3985;49.366;2.738;2022-10-16T03:48:20;5.00;;;5.00;;
7879;SDS011;3985;49.366;2.738;2022-10-16T03:50:48;4.50;;;4.50;;
7879;SDS011;3985;49.366;2.738;2022-10-16T03:53:16;8.00;;;7.50;;
7879;SDS011;3985;49.366;2.738;2022-10-16T03:55:45;7.25;;;5.25;;
7879;SDS011;3985;49.366;2.738;2022-10-16T03:58:12;5.75;;;5.75;;
7879;SDS011;3985;49.366;2.738;2022-10-16T04:00:40;4.25;;;4.25;;
7879;SDS011;3985;49.366;2.738;2022-10-16T04:03:08;6.50;;;6.25;;
7879;SDS011;3985;49.366;2.738;2022-10-16T04:05:36;9.50;;;7.75;;
7879;SDS011;3985;49.366;2.738;2022-10-16T04:08:04;5.25;;;5.25;;
7879;SDS011;3985;49.366;2.738;2022-10-16T04:10:31;6.25;;;6.00;;
7879;SDS011;3985;49.366;2.738;2022-10-16T04:13:01;6.50;;;6.50;;
7879;SDS011;3985;49.366;2.738;2022-10-16T04:15:28;7.00;;;5.50;;
7879;SDS011;3985;49.366;2.738;2022-10-16T04:17:55;5.75;;;5.75;;
7879;SDS011;3985;49.366;2.738;2022-10-16T04:20:23;6.25;;;6.25;;
7879;SDS011;3985;49.366;2.738;2022-10-16T04:22:50;5.75;;;5.75;;
7879;SDS011;3985;49.366;2.738;2022-10-16T04:25:18;5.50;;;5.50;;
7879;SDS011;3985;49.366;2.738;2022-10-16T04:27:45;7.00;;;7.00;;
7879;SDS011;3985;49.366;2.738;2022-10-16T04:30:15;5.75;;;5.75;;
7879;SDS011;3985;49.366;2.738;2022-10-16T04:32:43;9.75;;;9.75;;
7879;SDS011;3985;49.366;2.738;2022-10-16T04:35:14;7.50;;;7.50;;
7879;SDS011;3985;49.366;2.738;2022-10-16T04:37:41;4.00;;;4.00;;
7879;SDS011;3985;49.366;2.738;2022-10-16T04:40:08;6.00;;;6.00;;
7879;SDS011;3985;49.366;2.738;2022-10-16T04:42:38;5.00;;;5.00;;
7879;SDS011;3985;49.366;2.738;2022-10-16T04:45:06;6.00;;;6.00;;
7879;SDS011;3985;49.366;2.738;2022-10-16T04:47:35;7.00;;;4.00;;
7879;SDS011;3985;49.366;2.738;2022-10-16T04:50:03;3.25;;;3.25;;
7879;SDS011;3985;49.366;2.738;2022-10-16T04:52:32;4.75;;;4.75;;
7879;SDS011;3985;49.366;2.738;2022-10-16T04:54:59;4.75;;;4.75;;
7879;SDS011;3985;49.366;2.738;2022-10-16T04:57:28;4.00;;;4.00;;
7879;SDS011;3985;49.366;2.738;2022-10-16T04:59:55;2.75;;;2.75;;
7879;SDS011;3985;49.366;2.738;2022-10-16T05:02:23;4.00;;;4.00;;
7879;SDS011;3985;49.366;2.738;2022-10-16T05:04:52;3.50;;;3.50;;
7879;SDS011;3985;49.366;2.738;2022-10-16T05:07:20;3.00;;;3.00;;
7879;SDS011;3985;49.366;2.738;2022-10-16T05:09:47;4.50;;;4.50;;
7879;SDS011;3985;49.366;2.738;2022-10-16T05:12:16;3.25;;;3.25;;
7879;SDS011;3985;49.366;2.738;2022-10-16T05:14:44;3.50;;;3.50;;
7879;SDS011;3985;49.366;2.738;2022-10-16T05:17:11;3.50;;;3.50;;
7879;SDS011;3985;49.366;2.738;2022-10-16T05:19:39;2.00;;;1.50;;
7879;SDS011;3985;49.366;2.738;2022-10-16T05:22:08;2.75;;;2.50;;
7879;SDS011;3985;49.366;2.738;2022-10-16T05:24:35;2.50;;;2.50;;
7879;SDS011;3985;49.366;2.738;2022-10-16T05:27:03;2.00;;;0.25;;
7879;SDS011;3985;49.366;2.738;2022-10-16T05:29:30;2.00;;;2.00;;
7879;SDS011;3985;49.366;2.738;2022-10-16T05:31:58;1.25;;;1.25;;
7879;SDS011;3985;49.366;2.738;2022-10-16T05:34:25;2.00;;;2.00;;
7879;SDS011;3985;49.366;2.738;2022-10-16T05:36:53;1.50;;;1.50;;
7879;SDS011;3985;49.366;2.738;2022-10-16T05:39:22;2.50;;;1.00;;
7879;SDS011;3985;49.366;2.738;2022-10-16T05:41:49;0.75;;;0.75;;
7879;SDS011;3985;49.366;2.738;2022-10-16T05:44:17;2.00;;;2.00;;
7879;SDS011;3985;49.366;2.738;2022-10-16T05:46:45;3.25;;;1.75;;
7879;SDS011;3985;49.366;2.738;2022-10-16T05:49:13;3.50;;;1.50;;
7879;SDS011;3985;49.366;2.738;2022-10-16T05:51:41;1.75;;;1.75;;
7879;SDS011;3985;49.366;2.738;2022-10-16T05:54:08;1.50;;;1.00;;
7879;SDS011;3985;49.366;2.738;2022-10-16T05:56:37;1.75;;;1.75;;
7879;SDS011;3985;49.366;2.738;2022-10-16T05:59:04;1.00;;;1.00;;
7879;SDS011;3985;49.366;2.738;2022-10-16T06:01:32;1.00;;;1.00;;
7879;SDS011;3985;49.366;2.738;2022-10-16T06:04:00;1.00;;;1.00;;
7879;SDS011;3985;49.366;2.738;2022-10-16T06:06:28;3.50;;;2.00;;
7879;SDS011;3985;49.366;2.738;2022-10-16T06:08:56;1.00;;;1.00;;
7879;SDS011;3985;49.366;2.738;2022-10-16T06:11:25;2.75;;;2.00;;
7879;SDS011;3985;49.366;2.738;2022-10-16T06:13:57;2.25;;;1.00;;
7879;SDS011;3985;49.366;2.738;2022-10-16T06:16:27;1.00;;;1.00;;
7879;SDS011;3985;49.366;2.738;2022-10-16T06:18:55;1.25;;;1.25;;
7879;SDS011;3985;49.366;2.738;2022-10-16T06:21:24;2.25;;;1.50;;
7879;SDS011;3985;49.366;2.738;2022-10-16T06:23:56;1.75;;;1.75;;
7879;SDS011;3985;49.366;2.738;2022-10-16T06:26:24;1.00;;;1.00;;
7879;SDS011;3985;49.366;2.738;2022-10-16T06:28:53;1.00;;;1.00;;
7879;SDS011;3985;49.366;2.738;2022-10-16T06:31:23;1.75;;;1.75;;
7879;SDS011;3985;49.366;2.738;2022-10-16T06:33:54;1.75;;;1.75;;
7879;SDS011;3985;49.366;2.738;2022-10-16T06:36:21;1.75;;;1.75;;
7879;SDS011;3985;49.366;2.738;2022-10-16T06:38:50;3.75;;;2.00;;
7879;SDS011;3985;49.366;2.738;2022-10-16T06:41:18;1.00;;;1.00;;
7879;SDS011;3985;49.366;2.738;2022-10-16T06:43:46;2.25;;;1.50;;
7879;SDS011;3985;49.366;2.738;2022-10-16T06:46:19;1.50;;;1.50;;
7879;SDS011;3985;49.366;2.738;2022-10-16T06:48:49;0.50;;;0.00;;
7879;SDS011;3985;49.366;2.738;2022-10-16T06:51:17;3.00;;;3.00;;
7879;SDS011;3985;49.366;2.738;2022-10-16T06:53:46;1.75;;;1.00;;
7879;SDS011;3985;49.366;2.738;2022-10-16T06:56:17;3.00;;;3.00;;
7879;SDS011;3985;49.366;2.738;2022-10-16T06:58:46;3.75;;;3.75;;
7879;SDS011;3985;49.366;2.738;2022-10-16T07:01:15;3.50;;;3.25;;
7879;SDS011;3985;49.366;2.738;2022-10-16T07:03:44;2.00;;;2.00;;
7879;SDS011;3985;49.366;2.738;2022-10-16T07:06:14;2.75;;;2.00;;
7879;SDS011;3985;49.366;2.738;2022-10-16T07:08:44;6.50;;;5.00;;
7879;SDS011;3985;49.366;2.738;2022-10-16T07:11:13;3.75;;;3.75;;
7879;SDS011;3985;49.366;2.738;2022-10-16T07:13:42;5.00;;;5.00;;
7879;SDS011;3985;49.366;2.738;2022-10-16T07:16:11;4.25;;;4.25;;
7879;SDS011;3985;49.366;2.738;2022-10-16T07:18:39;3.25;;;3.25;;
7879;SDS011;3985;49.366;2.738;2022-10-16T07:21:09;2.50;;;2.50;;
7879;SDS011;3985;49.366;2.738;2022-10-16T07:23:39;2.00;;;2.00;;
7879;SDS011;3985;49.366;2.738;2022-10-16T07:26:07;2.75;;;2.75;;
7879;SDS011;3985;49.366;2.738;2022-10-16T07:28:35;2.00;;;2.00;;
7879;SDS011;3985;49.366;2.738;2022-10-16T07:31:06;3.00;;;2.00;;
7879;SDS011;3985;49.366;2.738;2022-10-16T07:33:36;2.00;;;1.25;;
7879;SDS011;3985;49.366;2.738;2022-10-16T07:36:05;2.00;;;2.00;;
7879;SDS011;3985;49.366;2.738;2022-10-16T07:38:33;2.75;;;1.50;;
7879;SDS011;3985;49.366;2.738;2022-10-16T07:41:05;2.50;;;1.75;;
7879;SDS011;3985;49.366;2.738;2022-10-16T07:43:35;2.25;;;1.00;;
7879;SDS011;3985;49.366;2.738;2022-10-16T07:46:03;0.75;;;0.75;;
7879;SDS011;3985;49.366;2.738;2022-10-16T07:48:31;2.00;;;2.00;;
7879;SDS011;3985;49.366;2.738;2022-10-16T07:51:00;1.00;;;1.00;;
7879;SDS011;3985;49.366;2.738;2022-10-16T07:53:29;0.25;;;0.25;;
7879;SDS011;3985;49.366;2.738;2022-10-16T07:55:58;1.00;;;1.00;;
7879;SDS011;3985;49.366;2.738;2022-10-16T07:58:27;1.75;;;1.00;;
7879;SDS011;3985;49.366;2.738;2022-10-16T08:00:55;1.00;;;1.00;;
7879;SDS011;3985;49.366;2.738;2022-10-16T08:03:23;0.50;;;0.50;;
7879;SDS011;3985;49.366;2.738;2022-10-16T08:05:51;1.00;;;1.00;;
7879;SDS011;3985;49.366;2.738;2022-10-16T08:08:18;1.00;;;1.00;;
7879;SDS011;3985;49.366;2.738;2022-10-16T08:10:46;1.00;;;1.00;;
7879;SDS011;3985;49.366;2.738;2022-10-16T08:13:13;0.50;;;0.50;;
7879;SDS011;3985;49.366;2.738;2022-10-16T08:15:42;1.00;;;1.00;;
7879;SDS011;3985;49.366;2.738;2022-10-16T08:18:11;0.25;;;0.25;;
7879;SDS011;3985;49.366;2.738;2022-10-16T08:20:39;0.00;;;0.00;;
7879;SDS011;3985;49.366;2.738;2022-10-16T08:23:07;1.00;;;0.25;;
7879;SDS011;3985;49.366;2.738;2022-10-16T08:25:36;0.00;;;0.00;;
7879;SDS011;3985;49.366;2.738;2022-10-16T08:28:04;1.00;;;1.00;;
7879;SDS011;3985;49.366;2.738;2022-10-16T08:30:32;0.00;;;0.00;;
7879;SDS011;3985;49.366;2.738;2022-10-16T08:33:01;0.00;;;0.00;;
7879;SDS011;3985;49.366;2.738;2022-10-16T08:35:29;1.25;;;0.00;;
7879;SDS011;3985;49.366;2.738;2022-10-16T08:37:56;1.80;;;1.00;;
7879;SDS011;3985;49.366;2.738;2022-10-16T08:40:24;0.00;;;0.00;;
7879;SDS011;3985;49.366;2.738;2022-10-16T08:42:56;1.00;;;1.00;;
7879;SDS011;3985;49.366;2.738;2022-10-16T08:45:52;1.00;;;1.00;;
7879;SDS011;3985;49.366;2.738;2022-10-16T08:48:35;1.00;;;1.00;;
7879;SDS011;3985;49.366;2.738;2022-10-16T08:51:10;1.00;;;1.00;;
7879;SDS011;3985;49.366;2.738;2022-10-16T08:53:45;1.00;;;1.00;;
7879;SDS011;3985;49.366;2.738;2022-10-16T08:56:15;0.75;;;0.75;;
7879;SDS011;3985;49.366;2.738;2022-10-16T08:58:44;1.00;;;1.00;;
7879;SDS011;3985;49.366;2.738;2022-10-16T09:01:13;1.00;;;1.00;;
7879;SDS011;3985;49.366;2.738;2022-10-16T09:03:48;0.75;;;0.75;;
7879;SDS011;3985;49.366;2.738;2022-10-16T09:06:26;0.00;;;0.00;;
7879;SDS011;3985;49.366;2.738;2022-10-16T09:09:09;1.00;;;1.00;;
7879;SDS011;3985;49.366;2.738;2022-10-16T09:11:48;0.00;;;0.00;;
7879;SDS011;3985;49.366;2.738;2022-10-16T09:14:23;1.00;;;1.00;;
7879;SDS011;3985;49.366;2.738;2022-10-16T09:17:16;1.00;;;1.00;;
7879;SDS011;3985;49.366;2.738;2022-10-16T09:19:54;0.00;;;0.00;;
7879;SDS011;3985;49.366;2.738;2022-10-16T09:22:26;0.40;;;0.40;;
7879;SDS011;3985;49.366;2.738;2022-10-16T09:24:54;1.20;;;0.00;;
7879;SDS011;3985;49.366;2.738;2022-10-16T09:27:23;1.00;;;1.00;;
7879;SDS011;3985;49.366;2.738;2022-10-16T09:29:51;2.60;;;0.60;;
7879;SDS011;3985;49.366;2.738;2022-10-16T09:32:19;0.60;;;0.60;;
7879;SDS011;3985;49.366;2.738;2022-10-16T09:34:48;0.00;;;0.00;;
7879;SDS011;3985;49.366;2.738;2022-10-16T09:37:19;2.00;;;0.00;;
7879;SDS011;3985;49.366;2.738;2022-10-16T09:39:48;0.20;;;0.20;;
7879;SDS011;3985;49.366;2.738;2022-10-16T09:42:17;0.00;;;0.00;;
7879;SDS011;3985;49.366;2.738;2022-10-16T09:44:47;0.00;;;0.00;;
7879;SDS011;3985;49.366;2.738;2022-10-16T09:47:16;2.80;;;0.00;;
7879;SDS011;3985;49.366;2.738;2022-10-16T09:49:52;1.00;;;1.00;;
7879;SDS011;3985;49.366;2.738;2022-10-16T09:52:23;2.00;;;2.00;;
7879;SDS011;3985;49.366;2.738;2022-10-16T09:54:51;1.60;;;1.60;;
7879;SDS011;3985;49.366;2.738;2022-10-16T09:57:20;0.00;;;0.00;;
7879;SDS011;3985;49.366;2.738;2022-10-16T09:59:48;0.20;;;0.20;;
7879;SDS011;3985;49.366;2.738;2022-10-16T10:02:18;0.00;;;0.00;;
7879;SDS011;3985;49.366;2.738;2022-10-16T10:04:50;0.00;;;0.00;;
7879;SDS011;3985;49.366;2.738;2022-10-16T10:07:21;0.00;;;0.00;;
7879;SDS011;3985;49.366;2.738;2022-10-16T10:09:52;0.60;;;0.40;;
7879;SDS011;3985;49.366;2.738;2022-10-16T10:12:21;3.00;;;3.00;;
7879;SDS011;3985;49.366;2.738;2022-10-16T10:14:50;0.00;;;0.00;;
7879;SDS011;3985;49.366;2.738;2022-10-16T10:17:19;0.40;;;0.40;;
7879;SDS011;3985;49.366;2.738;2022-10-16T10:19:49;0.20;;;0.20;;
7879;SDS011;3985;49.366;2.738;2022-10-16T10:22:20;1.40;;;0.00;;
7879;SDS011;3985;49.366;2.738;2022-10-16T10:25:31;0.00;;;0.00;;
7879;SDS011;3985;49.366;2.738;2022-10-16T10:28:07;0.00;;;0.00;;
7879;SDS011;3985;49.366;2.738;2022-10-16T10:30:47;0.00;;;0.00;;
7879;SDS011;3985;49.366;2.738;2022-10-16T10:33:23;0.00;;;0.00;;
7879;SDS011;3985;49.366;2.738;2022-10-16T10:35:56;0.00;;;0.00;;
7879;SDS011;3985;49.366;2.738;2022-10-16T10:38:35;0.00;;;0.00;;
7879;SDS011;3985;49.366;2.738;2022-10-16T10:44:08;0.00;;;0.00;;
7879;SDS011;3985;49.366;2.738;2022-10-16T10:46:42;0.00;;;0.00;;
7879;SDS011;3985;49.366;2.738;2022-10-16T10:49:20;0.00;;;0.00;;
7879;SDS011;3985;49.366;2.738;2022-10-16T10:52:00;0.00;;;0.00;;
7879;SDS011;3985;49.366;2.738;2022-10-16T10:54:37;0.00;;;0.00;;
7879;SDS011;3985;49.366;2.738;2022-10-16T10:57:14;0.00;;;0.00;;
7879;SDS011;3985;49.366;2.738;2022-10-16T10:59:51;0.00;;;0.00;;
7879;SDS011;3985;49.366;2.738;2022-10-16T11:02:26;0.00;;;0.00;;
7879;SDS011;3985;49.366;2.738;2022-10-16T11:08:08;0.00;;;0.00;;
7879;SDS011;3985;49.366;2.738;2022-10-16T11:10:42;0.00;;;0.00;;
7879;SDS011;3985;49.366;2.738;2022-10-16T11:13:18;0.00;;;0.00;;
7879;SDS011;3985;49.366;2.738;2022-10-16T11:15:54;0.80;;;0.00;;
7879;SDS011;3985;49.366;2.738;2022-10-16T11:18:26;0.00;;;0.00;;
7879;SDS011;3985;49.366;2.738;2022-10-16T11:21:02;0.00;;;0.00;;
7879;SDS011;3985;49.366;2.738;2022-10-16T11:23:33;0.00;;;0.00;;
7879;SDS011;3985;49.366;2.738;2022-10-16T11:26:11;0.40;;;0.00;;
7879;SDS011;3985;49.366;2.738;2022-10-16T11:28:45;0.00;;;0.00;;
7879;SDS011;3985;49.366;2.738;2022-10-16T11:31:14;0.00;;;0.00;;
7879;SDS011;3985;49.366;2.738;2022-10-16T11:33:45;0.00;;;0.00;;
7879;SDS011;3985;49.366;2.738;2022-10-16T11:36:16;0.00;;;0.00;;
7879;SDS011;3985;49.366;2.738;2022-10-16T11:38:48;0.00;;;0.00;;
7879;SDS011;3985;49.366;2.738;2022-10-16T11:41:22;0.00;;;0.00;;
7879;SDS011;3985;49.366;2.738;2022-10-16T11:43:58;0.00;;;0.00;;
7879;SDS011;3985;49.366;2.738;2022-10-16T11:46:36;0.00;;;0.00;;
7879;SDS011;3985;49.366;2.738;2022-10-16T11:49:08;0.00;;;0.00;;
7879;SDS011;3985;49.366;2.738;2022-10-16T11:51:38;0.00;;;0.00;;
7879;SDS011;3985;49.366;2.738;2022-10-16T11:54:14;0.00;;;0.00;;
7879;SDS011;3985;49.366;2.738;2022-10-16T11:56:48;0.00;;;0.00;;
7879;SDS011;3985;49.366;2.738;2022-10-16T11:59:20;0.00;;;0.00;;
7879;SDS011;3985;49.366;2.738;2022-10-16T12:01:53;0.00;;;0.00;;
7879;SDS011;3985;49.366;2.738;2022-10-16T12:04:27;0.00;;;0.00;;
7879;SDS011;3985;49.366;2.738;2022-10-16T12:06:59;0.00;;;0.00;;
7879;SDS011;3985;49.366;2.738;2022-10-16T12:09:30;0.00;;;0.00;;
7879;SDS011;3985;49.366;2.738;2022-10-16T12:12:00;0.00;;;0.00;;
7879;SDS011;3985;49.366;2.738;2022-10-16T12:14:36;0.00;;;0.00;;
7879;SDS011;3985;49.366;2.738;2022-10-16T12:19:57;1.00;;;0.00;;
7879;SDS011;3985;49.366;2.738;2022-10-16T12:22:27;0.00;;;0.00;;
7879;SDS011;3985;49.366;2.738;2022-10-16T12:24:56;0.00;;;0.00;;
7879;SDS011;3985;49.366;2.738;2022-10-16T12:27:25;1.00;;;0.00;;
7879;SDS011;3985;49.366;2.738;2022-10-16T12:29:57;0.00;;;0.00;;
7879;SDS011;3985;49.366;2.738;2022-10-16T12:32:27;0.00;;;0.00;;
7879;SDS011;3985;49.366;2.738;2022-10-16T12:34:56;0.00;;;0.00;;
7879;SDS011;3985;49.366;2.738;2022-10-16T12:37:25;0.00;;;0.00;;
7879;SDS011;3985;49.366;2.738;2022-10-16T12:39:54;0.00;;;0.00;;
7879;SDS011;3985;49.366;2.738;2022-10-16T12:42:30;1.00;;;0.00;;
7879;SDS011;3985;49.366;2.738;2022-10-16T12:45:01;0.00;;;0.00;;
7879;SDS011;3985;49.366;2.738;2022-10-16T12:47:36;0.00;;;0.00;;
7879;SDS011;3985;49.366;2.738;2022-10-16T12:50:27;0.00;;;0.00;;
7879;SDS011;3985;49.366;2.738;2022-10-16T12:52:57;0.00;;;0.00;;
7879;SDS011;3985;49.366;2.738;2022-10-16T12:55:24;0.00;;;0.00;;
7879;SDS011;3985;49.366;2.738;2022-10-16T12:58:00;0.00;;;0.00;;
7879;SDS011;3985;49.366;2.738;2022-10-16T13:00:40;0.00;;;0.00;;
7879;SDS011;3985;49.366;2.738;2022-10-16T13:03:20;0.00;;;0.00;;
7879;SDS011;3985;49.366;2.738;2022-10-16T13:06:07;0.00;;;0.00;;
7879;SDS011;3985;49.366;2.738;2022-10-16T13:11:51;0.00;;;0.00;;
7879;SDS011;3985;49.366;2.738;2022-10-16T13:14:38;0.00;;;0.00;;
7879;SDS011;3985;49.366;2.738;2022-10-16T13:17:17;0.00;;;0.00;;
7879;SDS011;3985;49.366;2.738;2022-10-16T13:19:51;0.00;;;0.00;;
7879;SDS011;3985;49.366;2.738;2022-10-16T13:22:25;0.00;;;0.00;;
7879;SDS011;3985;49.366;2.738;2022-10-16T13:25:02;0.00;;;0.00;;
7879;SDS011;3985;49.366;2.738;2022-10-16T13:27:40;0.00;;;0.00;;
7879;SDS011;3985;49.366;2.738;2022-10-16T13:30:15;0.00;;;0.00;;
7879;SDS011;3985;49.366;2.738;2022-10-16T13:32:46;0.00;;;0.00;;
7879;SDS011;3985;49.366;2.738;2022-10-16T13:35:19;0.00;;;0.00;;
7879;SDS011;3985;49.366;2.738;2022-10-16T13:37:49;0.20;;;0.00;;
7879;SDS011;3985;49.366;2.738;2022-10-16T13:40:21;0.00;;;0.00;;
7879;SDS011;3985;49.366;2.738;2022-10-16T13:42:50;0.00;;;0.00;;
7879;SDS011;3985;49.366;2.738;2022-10-16T13:45:20;0.00;;;0.00;;
7879;SDS011;3985;49.366;2.738;2022-10-16T13:48:00;0.00;;;0.00;;
7879;SDS011;3985;49.366;2.738;2022-10-16T13:50:28;0.00;;;0.00;;
7879;SDS011;3985;49.366;2.738;2022-10-16T13:53:03;0.00;;;0.00;;
7879;SDS011;3985;49.366;2.738;2022-10-16T13:55:31;0.00;;;0.00;;
7879;SDS011;3985;49.366;2.738;2022-10-16T13:58:07;0.00;;;0.00;;
7879;SDS011;3985;49.366;2.738;2022-10-16T14:00:38;0.00;;;0.00;;
7879;SDS011;3985;49.366;2.738;2022-10-16T14:03:12;0.00;;;0.00;;
7879;SDS011;3985;49.366;2.738;2022-10-16T14:05:42;0.00;;;0.00;;
7879;SDS011;3985;49.366;2.738;2022-10-16T14:08:11;0.00;;;0.00;;
7879;SDS011;3985;49.366;2.738;2022-10-16T14:10:39;0.00;;;0.00;;
7879;SDS011;3985;49.366;2.738;2022-10-16T14:13:07;0.40;;;0.00;;
7879;SDS011;3985;49.366;2.738;2022-10-16T14:15:39;0.00;;;0.00;;
7879;SDS011;3985;49.366;2.738;2022-10-16T14:18:14;0.00;;;0.00;;
7879;SDS011;3985;49.366;2.738;2022-10-16T14:20:46;0.00;;;0.00;;
7879;SDS011;3985;49.366;2.738;2022-10-16T14:23:19;0.00;;;0.00;;
7879;SDS011;3985;49.366;2.738;2022-10-16T14:25:51;0.00;;;0.00;;
7879;SDS011;3985;49.366;2.738;2022-10-16T14:28:20;0.00;;;0.00;;
7879;SDS011;3985;49.366;2.738;2022-10-16T14:30:49;0.00;;;0.00;;
7879;SDS011;3985;49.366;2.738;2022-10-16T14:33:24;1.00;;;1.00;;
7879;SDS011;3985;49.366;2.738;2022-10-16T14:36:02;0.00;;;0.00;;
7879;SDS011;3985;49.366;2.738;2022-10-16T14:38:31;0.00;;;0.00;;
7879;SDS011;3985;49.366;2.738;2022-10-16T14:40:59;0.80;;;0.80;;
7879;SDS011;3985;49.366;2.738;2022-10-16T14:43:30;0.00;;;0.00;;
7879;SDS011;3985;49.366;2.738;2022-10-16T14:45:59;1.00;;;1.00;;
7879;SDS011;3985;49.366;2.738;2022-10-16T14:48:29;1.00;;;1.00;;
7879;SDS011;3985;49.366;2.738;2022-10-16T14:50:56;0.60;;;0.60;;
7879;SDS011;3985;49.366;2.738;2022-10-16T14:53:24;0.00;;;0.00;;
7879;SDS011;3985;49.366;2.738;2022-10-16T14:55:52;1.00;;;1.00;;
7879;SDS011;3985;49.366;2.738;2022-10-16T14:58:20;1.00;;;1.00;;
7879;SDS011;3985;49.366;2.738;2022-10-16T15:00:48;1.00;;;1.00;;
7879;SDS011;3985;49.366;2.738;2022-10-16T15:03:16;0.00;;;0.00;;
7879;SDS011;3985;49.366;2.738;2022-10-16T15:05:45;1.00;;;1.00;;
7879;SDS011;3985;49.366;2.738;2022-10-16T15:08:12;2.00;;;0.00;;
7879;SDS011;3985;49.366;2.738;2022-10-16T15:10:42;3.60;;;1.00;;
7879;SDS011;3985;49.366;2.738;2022-10-16T15:13:13;1.00;;;1.00;;
7879;SDS011;3985;49.366;2.738;2022-10-16T15:15:42;1.60;;;0.00;;
7879;SDS011;3985;49.366;2.738;2022-10-16T15:18:10;1.00;;;1.00;;
7879;SDS011;3985;49.366;2.738;2022-10-16T15:20:39;0.60;;;0.60;;
7879;SDS011;3985;49.366;2.738;2022-10-16T15:23:13;1.00;;;1.00;;
7879;SDS011;3985;49.366;2.738;2022-10-16T15:25:42;1.00;;;1.00;;
7879;SDS011;3985;49.366;2.738;2022-10-16T15:28:12;2.00;;;2.00;;
7879;SDS011;3985;49.366;2.738;2022-10-16T15:30:40;1.00;;;1.00;;
7879;SDS011;3985;49.366;2.738;2022-10-16T15:33:10;1.00;;;1.00;;
7879;SDS011;3985;49.366;2.738;2022-10-16T15:35:40;1.00;;;1.00;;
7879;SDS011;3985;49.366;2.738;2022-10-16T15:38:09;1.00;;;1.00;;
7879;SDS011;3985;49.366;2.738;2022-10-16T15:40:40;1.00;;;1.00;;
7879;SDS011;3985;49.366;2.738;2022-10-16T15:43:07;0.00;;;0.00;;
7879;SDS011;3985;49.366;2.738;2022-10-16T15:45:37;1.40;;;1.40;;
7879;SDS011;3985;49.366;2.738;2022-10-16T15:48:04;1.00;;;1.00;;
7879;SDS011;3985;49.366;2.738;2022-10-16T15:50:32;1.00;;;1.00;;